Погода Барриньяна 2 недели

Сан-Паулу, Бразилия

21 июля-03 августа
  • 21июля
    Сегодня
    +13°
    +30°
    Ясно и безоблачно
    ВремяПогодаТемператураВлажностьДавлениеВетер, м/сВероятность осадков
    00:00Ясно и безоблачно+17°C57 %719 мм2.1 м/с5 %
    03:00Ясно и безоблачно+16°C61 %719 мм2.2 м/с5 %
    06:00Ясно и безоблачно+14°C72 %718 мм2.0 м/с5 %
    09:00Ясно и безоблачно+19°C51 %720 мм1.6 м/с5 %
    12:00Ясно и безоблачно+27°C32 %721 мм1.2 м/с5 %
    15:00Ясно и безоблачно+30°C26 %719 мм0.6 м/с5 %
    18:00Ясно и безоблачно+26°C39 %718 мм2.0 м/с5 %
    21:00Ясно и безоблачно+22°C49 %719 мм2.1 м/с5 %
  • 22июля
    Понедельник
    +14°
    +31°
    Ясно и безоблачно
    ВремяПогодаТемператураВлажностьДавлениеВетер, м/сВероятность осадков
    00:00Ясно и безоблачно+19°C58 %719 мм2.4 м/с5 %
    03:00Ясно и безоблачно+16°C70 %718 мм1.9 м/с5 %
    06:00Ясно и безоблачно+14°C81 %718 мм1.8 м/с5 %
    09:00Ясно и безоблачно+20°C53 %721 мм1.4 м/с5 %
    12:00Ясно и безоблачно+28°C28 %721 мм0.6 м/с5 %
    15:00Ясно и безоблачно+30°C24 %719 мм0.3 м/с5 %
    18:00Ясно и безоблачно+26°C35 %719 мм1.9 м/с5 %
    21:00Ясно и безоблачно+21°C49 %719 мм2.3 м/с5 %
  • 23июля
    Вторник
    +14°
    +32°
    Ясно и безоблачно
    ВремяПогодаТемператураВлажностьДавлениеВетер, м/сВероятность осадков
    00:00Ясно и безоблачно+19°C53 %720 мм2.6 м/с5 %
    03:00Ясно и безоблачно+17°C59 %719 мм2.3 м/с5 %
    06:00Ясно и безоблачно+16°C72 %719 мм2.3 м/с5 %
    09:00Ясно и безоблачно+20°C51 %721 мм1.5 м/с5 %
    12:00Ясно и безоблачно+28°C30 %721 мм1.7 м/с5 %
    15:00Ясно и безоблачно+31°C25 %719 мм1.5 м/с5 %
    18:00Ясно и безоблачно+27°C34 %719 мм2.2 м/с5 %
    21:00Ясно и безоблачно+23°C44 %720 мм2.7 м/с5 %
  • 24июля
    Среда
    +14°
    +31°
    Облачно с прояснениями
    ВремяПогодаТемператураВлажностьДавлениеВетер, м/сВероятность осадков
    00:00Ясно и безоблачно+20°C49 %719 мм2.4 м/с5 %
    03:00Практически безоблачно+16°C65 %718 мм2.0 м/с5 %
    06:00Практически безоблачно+15°C67 %719 мм2.2 м/с5 %
    09:00Ясно и безоблачно+20°C51 %721 мм1.5 м/с5 %
    12:00Небольшая облачность+28°C29 %721 мм2.1 м/с5 %
    15:00Облачно с прояснениями+31°C24 %719 мм1.0 м/с5 %
    18:00Небольшая облачность+27°C36 %719 мм1.6 м/с5 %
    21:00Практически безоблачно+22°C47 %719 мм2.5 м/с5 %
  • 25июля
    Четверг
    +13°
    +31°
    Ясно и безоблачно
    ВремяПогодаТемператураВлажностьДавлениеВетер, м/сВероятность осадков
    00:00Ясно и безоблачно+18°C58 %719 мм2.0 м/с5 %
    03:00Ясно и безоблачно+17°C62 %718 мм2.0 м/с5 %
    06:00Ясно и безоблачно+15°C73 %718 мм2.2 м/с5 %
    09:00Ясно и безоблачно+21°C47 %720 мм1.3 м/с5 %
    12:00Ясно и безоблачно+29°C26 %720 мм2.8 м/с5 %
    15:00Ясно и безоблачно+30°C24 %718 мм1.1 м/с5 %
    18:00Ясно и безоблачно+28°C32 %718 мм1.1 м/с5 %
    21:00Ясно и безоблачно+24°C40 %718 мм1.1 м/с5 %
Мы используем cookies
Соглашаюсь